createdAt,value
2018-07-30T00:00:58.127Z,67.85
2018-07-30T00:01:58.129Z,67.95
2018-07-30T00:02:58.129Z,67.95
2018-07-30T00:03:58.127Z,67.92
2018-07-30T00:04:58.133Z,68.70
2018-07-30T00:05:58.137Z,67.18
2018-07-30T00:06:58.138Z,65.40
2018-07-30T00:07:58.136Z,64.82
2018-07-30T00:08:58.139Z,64.04
2018-07-30T00:09:58.141Z,62.79
2018-07-30T00:10:58.143Z,62.10
2018-07-30T00:11:58.150Z,62.40
2018-07-30T00:12:58.152Z,62.23
2018-07-30T00:13:58.155Z,62.52
2018-07-30T00:14:58.155Z,62.82
2018-07-30T00:15:58.153Z,62.33
2018-07-30T00:16:58.156Z,62.62
2018-07-30T00:17:58.158Z,64.75
2018-07-30T00:18:58.158Z,65.82
2018-07-30T00:19:58.166Z,66.50
2018-07-30T00:20:58.168Z,66.40
2018-07-30T00:21:58.165Z,66.69
2018-07-30T00:22:58.167Z,67.57
2018-07-30T00:23:58.174Z,67.76
2018-07-30T00:24:58.178Z,67.82
2018-07-30T00:25:58.179Z,68.30
2018-07-30T00:26:58.180Z,68.21
2018-07-30T00:27:58.179Z,68.12
2018-07-30T00:28:58.179Z,68.89
2018-07-30T00:29:58.181Z,68.79
2018-07-30T00:30:58.184Z,69.57
2018-07-30T00:31:58.189Z,69.85
2018-07-30T00:32:58.192Z,69.85
2018-07-30T00:33:58.193Z,70.11
2018-07-30T00:34:58.194Z,70.01
2018-07-30T00:35:58.192Z,70.21
2018-07-30T00:36:58.194Z,69.82
2018-07-30T00:37:58.204Z,70.40
2018-07-30T00:38:58.208Z,70.40
2018-07-30T00:39:58.204Z,71.28
2018-07-30T00:40:58.204Z,71.28
2018-07-30T00:41:58.205Z,70.21
2018-07-30T00:42:58.210Z,71.08
2018-07-30T00:43:58.212Z,71.08
2018-07-30T00:44:58.215Z,71.18
2018-07-30T00:45:58.216Z,71.37
2018-07-30T00:46:58.221Z,71.08
2018-07-30T00:47:58.215Z,71.08
2018-07-30T00:48:58.216Z,71.28
2018-07-30T00:49:58.217Z,71.18
2018-07-30T00:50:58.219Z,71.95
2018-07-30T00:51:58.225Z,71.08
2018-07-30T00:52:58.228Z,71.72
2018-07-30T00:53:58.224Z,71.66
2018-07-30T00:54:58.281Z,72.05
2018-07-30T00:55:58.236Z,71.92
2018-07-30T00:56:58.284Z,71.28
2018-07-30T00:57:58.236Z,71.82
2018-07-30T00:58:58.238Z,71.44
2018-07-30T00:59:58.236Z,71.47
2018-07-30T01:00:58.236Z,71.86
2018-07-30T01:01:58.239Z,71.92
2018-07-30T01:02:58.239Z,71.62
2018-07-30T01:03:58.245Z,71.72
2018-07-30T01:04:58.247Z,72.44
2018-07-30T01:05:58.249Z,71.72
2018-07-30T01:06:58.250Z,72.40
2018-07-30T01:07:58.252Z,72.11
2018-07-30T01:08:58.250Z,72.11
2018-07-30T01:09:58.259Z,72.02
2018-07-30T01:10:58.258Z,72.02
2018-07-30T01:11:58.255Z,72.21
2018-07-30T01:12:58.255Z,72.60
2018-07-30T01:13:58.257Z,72.02
2018-07-30T01:14:58.258Z,72.60
2018-07-30T01:15:58.264Z,72.60
2018-07-30T01:16:58.267Z,72.79
2018-07-30T01:17:58.268Z,73.27
2018-07-30T01:18:58.270Z,73.57
2018-07-30T01:19:58.266Z,72.89
2018-07-30T01:20:58.271Z,73.57
2018-07-30T01:21:58.273Z,73.66
2018-07-30T01:22:58.273Z,73.37
2018-07-30T01:23:58.276Z,72.89
2018-07-30T01:24:58.279Z,73.18
2018-07-30T01:25:58.279Z,73.66
2018-07-30T01:26:58.276Z,73.72
2018-07-30T01:27:58.284Z,73.47
2018-07-30T01:28:58.285Z,73.04
2018-07-30T01:29:58.285Z,73.43
2018-07-30T01:30:58.287Z,73.72
2018-07-30T01:31:58.284Z,73.33
2018-07-30T01:32:58.285Z,73.53
2018-07-30T01:33:58.288Z,73.82
2018-07-30T01:34:58.287Z,74.30
2018-07-30T01:35:58.295Z,74.40
2018-07-30T01:36:58.295Z,74.30
2018-07-30T01:37:58.299Z,74.01
2018-07-30T01:38:58.300Z,74.69
2018-07-30T01:39:58.295Z,74.49
2018-07-30T01:40:58.296Z,75.17
2018-07-30T01:41:58.302Z,74.98
2018-07-30T01:42:58.306Z,74.59
2018-07-30T01:43:58.301Z,74.49
2018-07-30T01:44:58.301Z,74.40
2018-07-30T01:45:58.302Z,75.13
2018-07-30T01:46:58.307Z,74.94
2018-07-30T01:47:58.309Z,74.85
2018-07-30T01:48:58.311Z,74.75
2018-07-30T01:49:58.311Z,74.94
2018-07-30T01:50:58.311Z,75.04
2018-07-30T01:51:58.309Z,75.43
2018-07-30T01:52:58.310Z,75.04
2018-07-30T01:53:58.312Z,75.13
2018-07-30T01:54:58.314Z,75.13
2018-07-30T01:55:58.318Z,75.23
2018-07-30T01:56:58.321Z,75.00
2018-07-30T01:57:58.317Z,75.00
2018-07-30T01:58:58.318Z,75.48
2018-07-30T01:59:58.324Z,75.58
2018-07-30T02:00:58.325Z,75.97
2018-07-30T02:01:58.325Z,75.48
2018-07-30T02:02:58.325Z,76.16
2018-07-30T02:03:58.326Z,75.74
2018-07-30T02:04:58.325Z,76.22
2018-07-30T02:05:58.324Z,76.70
2018-07-30T02:06:58.324Z,76.70
2018-07-30T02:07:58.330Z,76.42
2018-07-30T02:08:58.332Z,76.80
2018-07-30T02:09:58.332Z,76.90
2018-07-30T02:10:58.333Z,77.09
2018-07-30T02:11:58.329Z,77.67
2018-07-30T02:12:58.330Z,77.38
2018-07-30T02:13:58.335Z,77.86
2018-07-30T02:14:58.335Z,77.96
2018-07-30T02:15:58.332Z,77.86
2018-07-30T02:16:58.333Z,78.25
2018-07-30T02:17:58.335Z,78.25
2018-07-30T02:18:58.335Z,78.50
2018-07-30T02:19:58.340Z,79.12
2018-07-30T02:20:58.342Z,79.08
2018-07-30T02:21:58.342Z,78.79
2018-07-30T02:22:58.342Z,79.08
2018-07-30T02:23:58.343Z,79.37
2018-07-30T02:24:58.338Z,79.47
2018-07-30T02:25:58.341Z,79.08
2018-07-30T02:26:58.338Z,79.17
2018-07-30T02:27:58.344Z,79.75
2018-07-30T02:28:58.345Z,79.37
2018-07-30T02:29:58.342Z,80.14
2018-07-30T02:30:58.342Z,80.05
2018-07-30T02:31:58.349Z,79.75
2018-07-30T02:32:58.354Z,79.75
2018-07-30T02:33:58.348Z,79.85
2018-07-30T02:34:58.350Z,79.85
2018-07-30T02:35:58.346Z,80.05
2018-07-30T02:36:58.346Z,79.75
2018-07-30T02:37:58.348Z,80.14
2018-07-30T02:38:58.347Z,79.66
2018-07-30T02:39:58.354Z,80.24
2018-07-30T02:40:58.353Z,80.53
2018-07-30T02:41:58.353Z,80.91
2018-07-30T02:42:58.352Z,80.72
2018-07-30T02:43:58.349Z,80.72
2018-07-30T02:44:58.350Z,80.91
2018-07-30T02:45:58.359Z,80.91
2018-07-30T02:46:58.362Z,80.49
2018-07-30T02:47:58.352Z,80.91
2018-07-30T02:48:58.352Z,80.68
2018-07-30T02:49:58.353Z,80.82
2018-07-30T02:50:58.354Z,80.68
2018-07-30T02:51:58.357Z,80.53
2018-07-30T02:52:58.358Z,80.68
2018-07-30T02:53:58.359Z,81.35
2018-07-30T02:54:58.359Z,81.07
2018-07-30T02:55:58.356Z,81.16
2018-07-30T02:56:58.356Z,81.74
2018-07-30T02:57:58.358Z,81.84
2018-07-30T02:58:58.355Z,81.55
2018-07-30T02:59:58.360Z,81.84
2018-07-30T03:00:58.361Z,81.74
2018-07-30T03:01:58.364Z,81.93
2018-07-30T03:02:58.358Z,81.55
2018-07-30T03:03:58.363Z,81.84
2018-07-30T03:04:58.362Z,81.84
2018-07-30T03:05:58.363Z,82.23
2018-07-30T03:06:58.363Z,82.03
2018-07-30T03:07:58.358Z,82.13
2018-07-30T03:08:58.360Z,82.81
2018-07-30T03:09:58.360Z,82.48
2018-07-30T03:10:58.359Z,82.38
2018-07-30T03:11:58.364Z,82.32
2018-07-30T03:12:58.366Z,81.55
2018-07-30T03:13:58.367Z,82.81
2018-07-30T03:14:58.370Z,82.48
2018-07-30T03:15:58.360Z,82.71
2018-07-30T03:16:58.362Z,82.90
2018-07-30T03:17:58.367Z,82.51
2018-07-30T03:18:58.367Z,82.81
2018-07-30T03:19:58.362Z,82.48
2018-07-30T03:20:58.363Z,82.48
2018-07-30T03:21:58.362Z,82.23
2018-07-30T03:22:58.362Z,81.84
2018-07-30T03:23:58.366Z,80.97
2018-07-30T03:24:58.368Z,80.39
2018-07-30T03:25:58.368Z,80.10
2018-07-30T03:26:58.367Z,80.00
2018-07-30T03:27:58.363Z,79.81
2018-07-30T03:28:58.364Z,79.17
2018-07-30T03:29:58.365Z,79.27
2018-07-30T03:30:58.364Z,80.30
2018-07-30T03:31:58.370Z,80.30
2018-07-30T03:32:58.370Z,80.20
2018-07-30T03:33:58.366Z,80.49
2018-07-30T03:34:58.365Z,81.26
2018-07-30T03:35:58.371Z,81.16
2018-07-30T03:36:58.373Z,81.84
2018-07-30T03:37:58.371Z,81.35
2018-07-30T03:38:58.374Z,81.07
2018-07-30T03:39:58.366Z,81.35
2018-07-30T03:40:58.366Z,81.45
2018-07-30T03:41:58.366Z,81.84
2018-07-30T03:42:58.366Z,81.93
2018-07-30T03:43:58.370Z,82.32
2018-07-30T03:44:58.372Z,82.61
2018-07-30T03:45:58.372Z,82.03
2018-07-30T03:46:58.372Z,82.71
2018-07-30T03:47:58.405Z,82.90
2018-07-30T03:48:58.367Z,81.93
2018-07-30T03:49:58.373Z,81.99
2018-07-30T03:50:58.372Z,82.51
2018-07-30T03:51:58.367Z,82.51
2018-07-30T03:52:58.370Z,82.71
2018-07-30T03:53:58.369Z,81.84
2018-07-30T03:54:58.367Z,82.51
2018-07-30T03:55:58.371Z,82.57
2018-07-30T03:56:58.375Z,82.61
2018-07-30T03:57:58.376Z,82.81
2018-07-30T03:58:58.374Z,82.42
2018-07-30T03:59:58.443Z,82.76
2018-07-30T04:00:58.371Z,82.71
2018-07-30T04:01:58.369Z,82.38
2018-07-30T04:02:58.418Z,83.29
2018-07-30T04:03:58.374Z,82.61
2018-07-30T04:04:58.376Z,83.09
2018-07-30T04:05:58.372Z,82.71
2018-07-30T04:06:58.368Z,82.51
2018-07-30T04:07:58.415Z,81.07
2018-07-30T04:08:58.375Z,80.10
2018-07-30T04:09:58.378Z,79.52
2018-07-30T04:10:58.373Z,79.62
2018-07-30T04:11:58.370Z,78.27
2018-07-30T04:12:58.370Z,78.75
2018-07-30T04:13:58.370Z,77.88
2018-07-30T04:14:58.370Z,77.98
2018-07-30T04:15:58.375Z,77.83
2018-07-30T04:16:58.375Z,76.95
2018-07-30T04:17:58.375Z,77.05
2018-07-30T04:18:58.375Z,76.95
2018-07-30T04:19:58.372Z,75.89
2018-07-30T04:20:58.373Z,74.73
2018-07-30T04:21:58.376Z,74.64
2018-07-30T04:22:58.376Z,74.58
2018-07-30T04:23:58.372Z,74.73
2018-07-30T04:24:58.372Z,73.90
2018-07-30T04:25:58.373Z,73.61
2018-07-30T04:26:58.373Z,72.64
2018-07-30T04:27:58.379Z,72.45
2018-07-30T04:28:58.381Z,72.64
2018-07-30T04:29:58.380Z,71.97
2018-07-30T04:30:58.379Z,71.78
2018-07-30T04:31:58.375Z,72.20
2018-07-30T04:32:58.375Z,71.72
2018-07-30T04:33:58.377Z,71.68
2018-07-30T04:34:58.376Z,73.42
2018-07-30T04:35:58.382Z,74.58
2018-07-30T04:36:58.381Z,75.16
2018-07-30T04:37:58.378Z,73.80
2018-07-30T04:38:58.378Z,72.84
2018-07-30T04:39:58.383Z,72.10
2018-07-30T04:40:58.384Z,71.81
2018-07-30T04:41:58.385Z,71.33
2018-07-30T04:42:58.384Z,71.04
2018-07-30T04:43:58.380Z,70.94
2018-07-30T04:44:58.382Z,70.56
2018-07-30T04:45:58.383Z,70.59
2018-07-30T04:46:58.382Z,70.01
2018-07-30T04:47:58.389Z,69.53
2018-07-30T04:48:58.390Z,68.85
2018-07-30T04:49:58.389Z,68.75
2018-07-30T04:50:58.389Z,69.04
2018-07-30T04:51:58.385Z,69.08
2018-07-30T04:52:58.389Z,68.69
2018-07-30T04:53:58.397Z,67.95
2018-07-30T04:54:58.393Z,67.66
2018-07-30T04:55:58.391Z,67.08
2018-07-30T04:56:58.400Z,66.98
2018-07-30T04:57:58.396Z,66.14
2018-07-30T04:58:58.396Z,65.66
2018-07-30T04:59:58.401Z,65.47
2018-07-30T05:00:58.405Z,64.53
2018-07-30T05:01:58.407Z,64.14
2018-07-30T05:02:58.407Z,64.17
2018-07-30T05:03:58.406Z,64.20
2018-07-30T05:04:58.409Z,64.11
2018-07-30T05:05:58.413Z,64.82
2018-07-30T05:06:58.412Z,65.72
2018-07-30T05:07:58.418Z,64.30
2018-07-30T05:08:58.423Z,63.13
2018-07-30T05:09:58.421Z,62.74
2018-07-30T05:10:58.423Z,63.52
2018-07-30T05:11:58.480Z,62.58
2018-07-30T05:12:58.437Z,61.71
2018-07-30T05:13:58.439Z,59.67
2018-07-30T05:14:58.441Z,60.05
2018-07-30T05:15:58.441Z,60.31
2018-07-30T05:16:58.443Z,60.02
2018-07-30T05:17:58.447Z,59.83
2018-07-30T05:18:58.451Z,60.12
2018-07-30T05:19:58.459Z,60.90
2018-07-30T05:20:58.463Z,60.77
2018-07-30T05:21:58.466Z,61.09
2018-07-30T05:22:58.470Z,61.65
2018-07-30T05:23:58.468Z,61.15
2018-07-30T05:24:58.472Z,59.11
2018-07-30T05:25:58.483Z,58.23
2018-07-30T05:26:58.486Z,57.39
2018-07-30T05:27:58.487Z,56.12
2018-07-30T05:28:58.488Z,56.49
2018-07-30T05:29:58.490Z,56.95
2018-07-30T05:30:58.494Z,58.01
2018-07-30T05:31:58.532Z,59.18
2018-07-30T05:32:58.507Z,58.79
2018-07-30T05:33:58.510Z,58.98
2018-07-30T05:34:58.512Z,59.18
2018-07-30T05:35:58.513Z,58.57
2018-07-30T05:36:58.515Z,58.89
2018-07-30T05:37:58.519Z,58.40
2018-07-30T05:38:58.523Z,58.72
2018-07-30T05:39:58.531Z,57.33
2018-07-30T05:40:58.535Z,56.59
2018-07-30T05:41:58.536Z,58.04
2018-07-30T05:42:58.540Z,58.43
2018-07-30T05:43:58.545Z,59.01
2018-07-30T05:44:58.550Z,60.38
2018-07-30T05:45:58.552Z,60.47
2018-07-30T05:46:58.555Z,60.96
2018-07-30T05:47:58.556Z,61.15
2018-07-30T05:48:58.558Z,61.83
2018-07-30T05:49:58.582Z,62.51
2018-07-30T05:50:58.564Z,62.97
2018-07-30T05:51:58.572Z,63.49
2018-07-30T05:52:58.581Z,61.71
2018-07-30T05:53:58.580Z,59.57
2018-07-30T05:54:58.585Z,61.90
2018-07-30T05:55:58.586Z,61.12
2018-07-30T05:56:58.586Z,60.96
2018-07-30T05:57:58.596Z,61.83
2018-07-30T05:58:58.598Z,61.83
2018-07-30T05:59:58.597Z,62.32
2018-07-30T06:00:58.601Z,62.51
2018-07-30T06:01:58.609Z,62.41
2018-07-30T06:02:58.607Z,61.87
2018-07-30T06:03:58.616Z,62.26
2018-07-30T06:04:58.619Z,61.47
2018-07-30T06:05:58.623Z,60.21
2018-07-30T06:06:58.626Z,59.14
2018-07-30T06:07:58.625Z,58.85
2018-07-30T06:08:58.629Z,59.23
2018-07-30T06:09:58.633Z,59.33
2018-07-30T06:10:58.637Z,57.59
2018-07-30T06:11:58.645Z,58.75
2018-07-30T06:12:58.650Z,58.56
2018-07-30T06:13:58.650Z,56.51
2018-07-30T06:14:58.652Z,56.15
2018-07-30T06:15:58.662Z,55.21
2018-07-30T06:16:58.668Z,54.43
2018-07-30T06:17:58.672Z,54.77
2018-07-30T06:18:58.670Z,53.89
2018-07-30T06:19:58.671Z,53.89
2018-07-30T06:20:58.708Z,53.63
2018-07-30T06:21:58.680Z,53.56
2018-07-30T06:22:58.683Z,53.85
2018-07-30T06:23:58.692Z,53.46
2018-07-30T06:24:58.701Z,52.58
2018-07-30T06:25:58.702Z,52.87
2018-07-30T06:26:58.706Z,52.87
2018-07-30T06:27:58.706Z,52.00
2018-07-30T06:28:58.714Z,51.70
2018-07-30T06:29:58.722Z,51.90
2018-07-30T06:30:58.730Z,51.78
2018-07-30T06:31:58.756Z,52.66
2018-07-30T06:32:58.732Z,52.95
2018-07-30T06:33:58.736Z,52.92
2018-07-30T06:34:58.739Z,51.75
2018-07-30T06:35:58.750Z,52.31
2018-07-30T06:36:58.755Z,52.70
2018-07-30T06:37:58.760Z,52.55
2018-07-30T06:38:58.767Z,53.30
2018-07-30T06:39:58.765Z,54.15
2018-07-30T06:40:58.770Z,54.83
2018-07-30T06:41:58.775Z,55.90
2018-07-30T06:42:58.782Z,56.07
2018-07-30T06:43:58.790Z,56.46
2018-07-30T06:44:58.796Z,57.43
2018-07-30T06:45:58.795Z,57.43
2018-07-30T06:46:58.799Z,57.04
2018-07-30T06:47:58.829Z,57.56
2018-07-30T06:48:58.815Z,57.95
2018-07-30T06:49:58.818Z,56.97
2018-07-30T06:50:58.823Z,56.68
2018-07-30T06:51:58.823Z,57.36
2018-07-30T06:52:58.828Z,57.20
2018-07-30T06:53:58.834Z,57.00
2018-07-30T06:54:58.837Z,56.12
2018-07-30T06:55:58.850Z,56.41
2018-07-30T06:56:58.853Z,56.00
2018-07-30T06:57:58.858Z,56.00
2018-07-30T06:58:58.863Z,56.10
2018-07-30T06:59:58.864Z,56.97
2018-07-30T07:00:58.873Z,56.97
2018-07-30T07:01:58.886Z,56.87
2018-07-30T07:02:58.882Z,57.36
2018-07-30T07:03:58.882Z,57.46
2018-07-30T07:04:58.887Z,57.23
2018-07-30T07:05:58.892Z,58.21
2018-07-30T07:06:58.896Z,57.95
2018-07-30T07:07:58.905Z,57.95
2018-07-30T07:08:58.912Z,57.78
2018-07-30T07:09:58.920Z,57.49
2018-07-30T07:10:58.995Z,56.93
2018-07-30T07:11:58.921Z,56.15
2018-07-30T07:12:58.927Z,56.05
2018-07-30T07:13:58.933Z,56.09
2018-07-30T07:14:58.937Z,55.01
2018-07-30T07:15:58.946Z,54.85
2018-07-30T07:16:59.028Z,54.13
2018-07-30T07:17:58.952Z,54.13
2018-07-30T07:18:58.958Z,54.13
2018-07-30T07:19:58.971Z,54.69
2018-07-30T07:20:58.974Z,54.50
2018-07-30T07:21:59.046Z,54.69
2018-07-30T07:22:58.983Z,54.50
2018-07-30T07:23:58.986Z,54.47
2018-07-30T07:24:58.991Z,54.57
2018-07-30T07:25:58.997Z,54.86
2018-07-30T07:26:59.080Z,55.44
2018-07-30T07:27:59.063Z,54.89
2018-07-30T07:28:59.018Z,55.08
2018-07-30T07:29:59.025Z,55.37
2018-07-30T07:30:59.036Z,54.99
2018-07-30T07:31:59.035Z,55.11
2018-07-30T07:32:59.037Z,54.52
2018-07-30T07:33:59.048Z,54.16
2018-07-30T07:34:59.105Z,53.48
2018-07-30T07:35:59.057Z,53.58
2018-07-30T07:36:59.063Z,53.31
2018-07-30T07:37:59.068Z,53.02
2018-07-30T07:38:59.075Z,52.83
2018-07-30T07:39:59.086Z,52.63
2018-07-30T07:40:59.093Z,52.73
2018-07-30T07:41:59.101Z,53.14
2018-07-30T07:42:59.105Z,52.58
2018-07-30T07:43:59.106Z,51.80
2018-07-30T07:44:59.143Z,51.20
2018-07-30T07:45:59.165Z,49.38
2018-07-30T07:46:59.126Z,48.50
2018-07-30T07:47:59.138Z,47.41
2018-07-30T07:48:59.145Z,49.33
2018-07-30T07:49:59.171Z,50.81
2018-07-30T07:50:59.365Z,51.78
2018-07-30T07:51:59.168Z,50.78
2018-07-30T07:52:59.175Z,51.86
2018-07-30T07:53:59.188Z,52.47
2018-07-30T07:54:59.190Z,51.83
2018-07-30T07:55:59.193Z,49.41
2018-07-30T07:56:59.201Z,48.33
2018-07-30T07:57:59.209Z,47.67
2018-07-30T07:58:59.217Z,46.97
2018-07-30T07:59:59.230Z,46.66
2018-07-30T08:00:59.239Z,45.59
2018-07-30T08:01:59.246Z,44.06
2018-07-30T08:02:59.253Z,44.01
2018-07-30T08:03:59.333Z,42.67
2018-07-30T08:04:59.267Z,42.20
2018-07-30T08:05:59.281Z,41.71
2018-07-30T08:06:59.290Z,40.27
2018-07-30T08:07:59.297Z,39.17
2018-07-30T08:08:59.318Z,37.59
2018-07-30T08:09:59.317Z,37.32
2018-07-30T08:10:59.354Z,36.36
2018-07-30T08:11:59.345Z,38.62
2018-07-30T08:12:59.355Z,38.93
2018-07-30T08:13:59.367Z,40.31
2018-07-30T08:14:59.378Z,39.05
2018-07-30T08:15:59.385Z,38.89
2018-07-30T08:16:59.399Z,38.24
2018-07-30T08:17:59.412Z,39.18
2018-07-30T08:18:59.424Z,38.23
2018-07-30T08:19:59.441Z,39.15
2018-07-30T08:20:59.455Z,38.64
2018-07-30T08:21:59.464Z,38.30
2018-07-30T08:22:59.477Z,38.70
2018-07-30T08:23:59.541Z,38.89
2018-07-30T08:24:59.509Z,38.68
2018-07-30T08:25:59.525Z,39.06
2018-07-30T08:26:59.537Z,40.53
2018-07-30T08:27:59.546Z,41.58
2018-07-30T08:28:59.605Z,41.21
2018-07-30T08:29:59.575Z,41.33
2018-07-30T08:30:59.587Z,41.19
2018-07-30T08:31:59.605Z,39.58
2018-07-30T08:32:59.622Z,38.62
2018-07-30T08:33:59.634Z,39.09
2018-07-30T08:34:59.646Z,39.09
2018-07-30T08:35:59.654Z,38.60
2018-07-30T08:36:59.674Z,38.10
2018-07-30T08:37:59.687Z,37.63
2018-07-30T08:38:59.700Z,37.71
2018-07-30T08:39:59.708Z,37.71
2018-07-30T08:40:59.720Z,38.42
2018-07-30T08:41:59.735Z,38.06
2018-07-30T08:42:59.749Z,36.54
2018-07-30T08:43:59.765Z,35.63
2018-07-30T08:44:59.778Z,36.44
2018-07-30T08:45:59.793Z,35.99
2018-07-30T08:46:59.808Z,35.75
2018-07-30T08:47:59.814Z,35.07
2018-07-30T08:48:59.829Z,34.76
2018-07-30T08:49:59.845Z,34.27
2018-07-30T08:50:59.856Z,35.66
2018-07-30T08:51:59.875Z,36.66
2018-07-30T08:52:59.890Z,36.86
2018-07-30T08:53:59.898Z,36.13
2018-07-30T08:54:59.915Z,36.35
2018-07-30T08:55:59.934Z,36.43
2018-07-30T08:56:59.945Z,36.90
2018-07-30T08:57:59.959Z,37.81
2018-07-30T08:58:59.973Z,38.28
2018-07-30T08:59:59.985Z,37.51
2018-07-30T09:01:00.000Z,37.65
2018-07-30T09:02:00.013Z,37.77
2018-07-30T09:03:00.027Z,37.30
2018-07-30T09:04:00.046Z,36.96
2018-07-30T09:05:00.063Z,36.02
2018-07-30T09:06:00.079Z,36.11
2018-07-30T09:07:00.096Z,35.45
2018-07-30T09:08:00.103Z,34.84
2018-07-30T09:09:00.117Z,34.72
2018-07-30T09:10:00.137Z,34.64
2018-07-30T09:11:00.152Z,34.46
2018-07-30T09:12:00.165Z,35.04
2018-07-30T09:13:00.178Z,35.12
2018-07-30T09:14:00.196Z,33.49
2018-07-30T09:15:00.210Z,33.45
2018-07-30T09:16:00.234Z,33.45
2018-07-30T09:17:00.247Z,34.74
2018-07-30T09:18:00.264Z,35.35
2018-07-30T09:19:00.281Z,34.38
2018-07-30T09:20:00.292Z,34.12
2018-07-30T09:21:00.310Z,35.15
2018-07-30T09:22:00.327Z,34.79
2018-07-30T09:23:00.343Z,33.85
2018-07-30T09:24:00.365Z,31.90
2018-07-30T09:25:00.383Z,34.06
2018-07-30T09:26:00.395Z,36.02
2018-07-30T09:27:00.412Z,34.69
2018-07-30T09:28:00.434Z,34.41
2018-07-30T09:29:00.454Z,33.64
2018-07-30T09:30:00.471Z,33.34
2018-07-30T09:31:00.485Z,32.07
2018-07-30T09:32:00.495Z,34.06
2018-07-30T09:33:00.606Z,35.09
2018-07-30T09:34:00.534Z,33.45
2018-07-30T09:35:00.550Z,32.88
2018-07-30T09:36:00.569Z,32.06
2018-07-30T09:37:00.586Z,32.48
2018-07-30T09:38:00.602Z,31.72
2018-07-30T09:39:00.619Z,30.68
2018-07-30T09:40:00.633Z,30.80
2018-07-30T09:41:00.650Z,29.57
2018-07-30T09:42:00.671Z,29.64
2018-07-30T09:43:00.689Z,31.23
2018-07-30T09:44:00.703Z,30.47
2018-07-30T09:45:00.794Z,30.41
2018-07-30T09:46:00.740Z,31.08
2018-07-30T09:47:00.757Z,31.22
2018-07-30T09:48:00.781Z,31.79
2018-07-30T09:49:00.803Z,32.98
2018-07-30T09:50:00.818Z,34.12
2018-07-30T09:51:00.838Z,34.71
2018-07-30T09:52:00.850Z,34.55
2018-07-30T09:53:00.910Z,33.33
2018-07-30T09:54:00.888Z,32.71
2018-07-30T09:55:00.904Z,33.09
2018-07-30T09:56:00.928Z,33.26
2018-07-30T09:57:00.946Z,31.79
2018-07-30T09:58:00.960Z,33.06
2018-07-30T09:59:00.978Z,34.94
2018-07-30T10:00:01.001Z,34.06
2018-07-30T10:01:01.025Z,34.08
2018-07-30T10:02:01.044Z,33.11
2018-07-30T10:03:01.059Z,33.20
2018-07-30T10:04:01.074Z,32.93
2018-07-30T10:05:01.092Z,33.11
2018-07-30T10:06:01.109Z,32.83
2018-07-30T10:07:01.127Z,32.60
2018-07-30T10:08:01.150Z,33.28
2018-07-30T10:09:01.170Z,34.34
2018-07-30T10:10:01.187Z,34.58
2018-07-30T10:11:01.204Z,34.10
2018-07-30T10:12:01.219Z,33.61
2018-07-30T10:13:01.239Z,32.93
2018-07-30T10:14:01.260Z,33.42
2018-07-30T10:15:01.285Z,33.04
2018-07-30T10:16:01.296Z,33.41
2018-07-30T10:17:01.313Z,34.39
2018-07-30T10:18:01.359Z,34.08
2018-07-30T10:19:01.350Z,33.97
2018-07-30T10:20:01.373Z,34.46
2018-07-30T10:21:01.391Z,34.76
2018-07-30T10:22:01.410Z,33.34
2018-07-30T10:23:01.428Z,31.90
2018-07-30T10:24:01.443Z,31.71
2018-07-30T10:25:01.463Z,32.09
2018-07-30T10:26:01.479Z,32.09
2018-07-30T10:27:01.497Z,31.97
2018-07-30T10:28:01.520Z,32.20
2018-07-30T10:29:01.540Z,31.47
2018-07-30T10:30:01.557Z,29.91
2018-07-30T10:31:01.573Z,29.65
2018-07-30T10:32:01.596Z,29.77
2018-07-30T10:33:01.616Z,30.16
2018-07-30T10:34:01.636Z,29.69
2018-07-30T10:35:01.657Z,28.49
2018-07-30T10:36:01.669Z,28.72
2018-07-30T10:37:01.688Z,29.38
2018-07-30T10:38:01.773Z,29.71
2018-07-30T10:39:01.731Z,30.02
2018-07-30T10:40:01.745Z,29.92
2018-07-30T10:41:01.764Z,30.37
2018-07-30T10:42:01.783Z,31.33
2018-07-30T10:43:01.801Z,32.01
2018-07-30T10:44:01.830Z,32.34
2018-07-30T10:45:01.849Z,32.55
2018-07-30T10:46:01.858Z,32.10
2018-07-30T10:47:01.876Z,32.81
2018-07-30T10:48:01.900Z,33.47
2018-07-30T10:49:01.919Z,33.18
2018-07-30T10:50:01.940Z,33.82
2018-07-30T10:51:01.954Z,33.03
2018-07-30T10:52:01.969Z,32.60
2018-07-30T10:53:01.987Z,32.59
2018-07-30T10:54:02.005Z,33.47
2018-07-30T10:55:02.023Z,33.44
2018-07-30T10:56:02.050Z,33.62
2018-07-30T10:57:02.064Z,34.53
2018-07-30T10:58:02.084Z,34.55
2018-07-30T10:59:02.101Z,34.20
2018-07-30T11:00:02.115Z,33.69
2018-07-30T11:01:02.244Z,33.04
2018-07-30T11:02:02.156Z,31.97
2018-07-30T11:03:02.173Z,32.47
2018-07-30T11:04:02.186Z,33.94
2018-07-30T11:05:02.205Z,35.04
2018-07-30T11:06:02.225Z,34.95
2018-07-30T11:07:02.240Z,34.08
2018-07-30T11:08:02.263Z,32.83
2018-07-30T11:09:02.280Z,34.10
2018-07-30T11:10:02.300Z,35.97
2018-07-30T11:11:02.316Z,35.55
2018-07-30T11:12:02.332Z,34.56
2018-07-30T11:13:02.348Z,33.31
2018-07-30T11:14:02.366Z,33.64
2018-07-30T11:15:02.389Z,33.00
2018-07-30T11:16:02.406Z,34.36
2018-07-30T11:17:02.422Z,34.46
2018-07-30T11:18:02.436Z,34.59
2018-07-30T11:19:02.452Z,34.55
2018-07-30T11:20:02.492Z,35.18
2018-07-30T11:21:02.492Z,36.72
2018-07-30T11:22:02.510Z,36.36
2018-07-30T11:23:02.526Z,35.73
2018-07-30T11:24:02.541Z,34.06
2018-07-30T11:25:02.559Z,34.25
2018-07-30T11:26:02.578Z,34.84
2018-07-30T11:27:02.591Z,34.78
2018-07-30T11:28:02.644Z,33.87
2018-07-30T11:29:02.627Z,34.99
2018-07-30T11:30:02.644Z,35.28
2018-07-30T11:31:02.661Z,35.08
2018-07-30T11:32:02.671Z,35.17
2018-07-30T11:33:02.687Z,35.63
2018-07-30T11:34:02.710Z,36.20
2018-07-30T11:35:02.724Z,36.67
2018-07-30T11:36:02.734Z,37.36
2018-07-30T11:37:02.749Z,37.84
2018-07-30T11:38:02.761Z,37.74
2018-07-30T11:39:02.776Z,39.00
2018-07-30T11:40:02.818Z,38.88
2018-07-30T11:41:02.808Z,39.68
2018-07-30T11:42:02.821Z,39.00
2018-07-30T11:43:02.913Z,38.90
2018-07-30T11:44:02.842Z,39.45
2018-07-30T11:45:02.855Z,38.93
2018-07-30T11:46:02.866Z,39.25
2018-07-30T11:47:02.878Z,39.92
2018-07-30T11:48:02.893Z,40.70
2018-07-30T11:49:02.906Z,41.17
2018-07-30T11:50:02.912Z,41.51
2018-07-30T11:51:02.923Z,40.25
2018-07-30T11:52:02.940Z,40.82
2018-07-30T11:53:02.952Z,40.74
2018-07-30T11:54:03.023Z,39.45
2018-07-30T11:55:02.972Z,39.35
2018-07-30T11:56:02.977Z,40.13
2018-07-30T11:57:03.028Z,40.25
2018-07-30T11:58:02.998Z,39.39
2018-07-30T11:59:03.011Z,40.13
2018-07-30T12:00:03.023Z,40.63
2018-07-30T12:01:03.077Z,40.80
2018-07-30T12:02:03.044Z,41.19
2018-07-30T12:03:03.051Z,40.63
2018-07-30T12:04:03.057Z,40.06
2018-07-30T12:05:03.067Z,39.39
2018-07-30T12:06:03.083Z,38.82
2018-07-30T12:07:03.090Z,39.03
2018-07-30T12:08:03.095Z,39.07
2018-07-30T12:09:03.104Z,39.29
2018-07-30T12:10:03.116Z,38.52
2018-07-30T12:11:03.124Z,38.32
2018-07-30T12:12:03.144Z,38.80
2018-07-30T12:13:03.148Z,38.78
2018-07-30T12:14:03.157Z,40.11
2018-07-30T12:15:03.166Z,41.09
2018-07-30T12:16:03.179Z,40.23
2018-07-30T12:17:03.179Z,39.64
2018-07-30T12:18:03.188Z,40.53
2018-07-30T12:19:03.195Z,39.39
2018-07-30T12:20:03.210Z,38.80
2018-07-30T12:21:03.218Z,38.90
2018-07-30T12:22:03.224Z,39.01
2018-07-30T12:23:03.237Z,38.62
2018-07-30T12:24:03.244Z,38.70
2018-07-30T12:25:03.255Z,38.40
2018-07-30T12:26:03.263Z,39.19
2018-07-30T12:27:03.272Z,38.70
2018-07-30T12:28:03.275Z,38.39
2018-07-30T12:29:03.286Z,38.58
2018-07-30T12:30:03.349Z,38.90
2018-07-30T12:31:03.301Z,38.70
2018-07-30T12:32:03.315Z,38.58
2018-07-30T12:33:03.322Z,38.48
2018-07-30T12:34:03.331Z,39.06
2018-07-30T12:35:03.338Z,39.14
2018-07-30T12:36:03.351Z,39.33
2018-07-30T12:37:03.352Z,40.41
2018-07-30T12:38:03.364Z,40.53
2018-07-30T12:39:03.372Z,40.35
2018-07-30T12:40:03.380Z,39.07
2018-07-30T12:41:03.384Z,40.01
2018-07-30T12:42:03.395Z,40.78
2018-07-30T12:43:03.402Z,40.80
2018-07-30T12:44:03.414Z,40.16
2018-07-30T12:45:03.492Z,39.07
2018-07-30T12:46:03.429Z,39.54
2018-07-30T12:47:03.437Z,40.53
2018-07-30T12:48:03.440Z,40.13
2018-07-30T12:49:03.449Z,39.45
2018-07-30T12:50:03.459Z,39.07
2018-07-30T12:51:03.467Z,38.90
2018-07-30T12:52:03.478Z,39.37
2018-07-30T12:53:03.508Z,39.07